Time;durP1;ratioP1;P1;durP2;ratioP2;P2;SDS_P1;SDS_P2;PMS_P1;PMS_P2;Temp;Humidity;BMP_temperature;BMP_pressure;BME280_temperature;BME280_humidity;BME280_pressure;Samples;Min_cycle;Max_cycle;Signal;HPM_P1;HPM_P2
2024/03/25 00:01:25;;;;;;;18.38;3.25;;;;;;;;;;4943215;28;20095;-66
2024/03/25 00:03:51;;;;;;;22.50;3.47;;;;;;;;;;4960013;28;20177;-66
2024/03/25 00:06:17;;;;;;;22.77;3.58;;;;;;;;;;4937573;28;20042;-66
2024/03/25 00:08:44;;;;;;;18.40;4.43;;;;;;;;;;4957973;28;20057;-65
2024/03/25 00:11:10;;;;;;;23.45;4.25;;;;;;;;;;4959947;28;20046;-65
2024/03/25 00:13:36;;;;;;;17.42;4.15;;;;;;;;;;4941766;28;20577;-66
2024/03/25 00:16:04;;;;;;;19.48;3.65;;;;;;;;;;4931724;28;20050;-66
2024/03/25 00:18:31;;;;;;;20.45;3.30;;;;;;;;;;4922950;28;20130;-66
2024/03/25 00:20:57;;;;;;;23.02;4.40;;;;;;;;;;4942283;28;20063;-66
2024/03/25 00:23:24;;;;;;;21.40;3.67;;;;;;;;;;4932899;28;20474;-66
2024/03/25 00:25:50;;;;;;;26.95;4.72;;;;;;;;;;4951776;28;20050;-66
2024/03/25 00:28:16;;;;;;;16.02;2.90;;;;;;;;;;4937759;28;20054;-66
2024/03/25 00:30:42;;;;;;;20.05;4.22;;;;;;;;;;4956154;28;20043;-66
2024/03/25 00:33:09;;;;;;;33.17;4.80;;;;;;;;;;4957762;28;20046;-65
2024/03/25 00:35:36;;;;;;;21.27;4.05;;;;;;;;;;4957771;28;20077;-66
2024/03/25 00:38:02;;;;;;;18.15;3.55;;;;;;;;;;4941028;28;20059;-66
2024/03/25 00:40:28;;;;;;;23.88;4.05;;;;;;;;;;4957824;28;20913;-66
2024/03/25 00:42:54;;;;;;;26.10;3.88;;;;;;;;;;4943728;28;20046;-66
2024/03/25 00:45:20;;;;;;;26.13;4.05;;;;;;;;;;4948460;28;20066;-65
2024/03/25 00:47:46;;;;;;;25.05;3.45;;;;;;;;;;4945009;28;20057;-66
2024/03/25 00:50:14;;;;;;;20.05;3.60;;;;;;;;;;4946487;28;20055;-66
2024/03/25 00:52:40;;;;;;;21.70;4.53;;;;;;;;;;4964044;28;20046;-66
2024/03/25 00:55:08;;;;;;;23.52;3.72;;;;;;;;;;4962541;28;20095;-66
2024/03/25 00:57:34;;;;;;;17.42;3.28;;;;;;;;;;4952921;28;20129;-66
2024/03/25 01:00:00;;;;;;;17.88;3.33;;;;;;;;;;4947294;28;20474;-65
2024/03/25 01:02:27;;;;;;;19.05;3.05;;;;;;;;;;4948820;28;20441;-66
2024/03/25 01:04:54;;;;;;;19.67;3.20;;;;;;;;;;4964918;28;20061;-65
2024/03/25 01:07:20;;;;;;;20.20;3.55;;;;;;;;;;4963053;28;20449;-66
2024/03/25 01:09:47;;;;;;;22.52;3.40;;;;;;;;;;4947992;28;20061;-65
2024/03/25 01:12:13;;;;;;;27.83;4.30;;;;;;;;;;4964902;28;20537;-66
2024/03/25 01:14:39;;;;;;;13.00;3.72;;;;;;;;;;4948392;28;20043;-66
2024/03/25 01:17:05;;;;;;;14.52;3.08;;;;;;;;;;4955871;28;20045;-66
2024/03/25 01:19:31;;;;;;;22.35;4.38;;;;;;;;;;4968771;28;20394;-66
2024/03/25 01:21:57;;;;;;;14.65;2.88;;;;;;;;;;4950095;28;21250;-65
2024/03/25 01:24:24;;;;;;;19.40;3.88;;;;;;;;;;4948674;28;20046;-66
2024/03/25 01:26:50;;;;;;;18.67;4.10;;;;;;;;;;4961296;28;20050;-66
2024/03/25 01:29:16;;;;;;;19.60;3.50;;;;;;;;;;4962309;28;20082;-66
2024/03/25 01:31:42;;;;;;;15.68;3.35;;;;;;;;;;4946588;28;20046;-66
2024/03/25 01:34:08;;;;;;;18.70;2.88;;;;;;;;;;4963311;28;20059;-66
2024/03/25 01:36:35;;;;;;;17.95;3.25;;;;;;;;;;4964412;28;20038;-66
2024/03/25 01:39:01;;;;;;;20.23;2.95;;;;;;;;;;4964832;28;20390;-66
2024/03/25 01:41:27;;;;;;;19.92;3.33;;;;;;;;;;4947720;28;20043;-65
2024/03/25 01:43:53;;;;;;;18.27;3.40;;;;;;;;;;4965301;28;20057;-66
2024/03/25 01:46:21;;;;;;;25.05;3.38;;;;;;;;;;4965053;28;21325;-65
2024/03/25 01:48:48;;;;;;;19.20;3.00;;;;;;;;;;4947374;28;20053;-66
2024/03/25 01:51:16;;;;;;;20.17;3.10;;;;;;;;;;4963028;28;20418;-66
2024/03/25 01:53:43;;;;;;;16.85;2.38;;;;;;;;;;4963258;28;20062;-66
2024/03/25 01:56:10;;;;;;;17.98;3.15;;;;;;;;;;4943336;28;20078;-66
2024/03/25 01:58:37;;;;;;;15.50;2.53;;;;;;;;;;4957774;28;20062;-66
2024/03/25 02:01:03;;;;;;;11.25;1.98;;;;;;;;;;4943494;28;20145;-66
2024/03/25 02:03:30;;;;;;;13.85;2.20;;;;;;;;;;4967162;28;20044;-65
2024/03/25 02:05:58;;;;;;;17.10;2.53;;;;;;;;;;4940177;28;20055;-66
2024/03/25 02:08:26;;;;;;;20.75;3.78;;;;;;;;;;4951954;28;20090;-66
2024/03/25 02:10:53;;;;;;;15.75;2.60;;;;;;;;;;4947206;28;20499;-66
2024/03/25 02:13:19;;;;;;;14.35;2.88;;;;;;;;;;4964492;28;20047;-66
2024/03/25 02:15:45;;;;;;;24.67;3.15;;;;;;;;;;4964125;28;21941;-65
2024/03/25 02:18:12;;;;;;;16.42;1.83;;;;;;;;;;4961084;28;20071;-66
2024/03/25 02:20:38;;;;;;;19.40;3.13;;;;;;;;;;4964522;28;21289;-66
2024/03/25 02:23:04;;;;;;;26.30;3.13;;;;;;;;;;4963256;28;20121;-65
2024/03/25 02:25:32;;;;;;;12.85;2.28;;;;;;;;;;4962345;28;20498;-66
2024/03/25 02:27:59;;;;;;;12.38;2.08;;;;;;;;;;4960869;28;20043;-65
2024/03/25 02:30:25;;;;;;;14.65;3.05;;;;;;;;;;4960745;28;20125;-65
2024/03/25 02:32:51;;;;;;;25.08;5.25;;;;;;;;;;4961229;28;20050;-66
2024/03/25 02:35:17;;;;;;;15.55;2.80;;;;;;;;;;4962067;28;20442;-66
2024/03/25 02:37:43;;;;;;;18.38;3.20;;;;;;;;;;4947213;28;20038;-65
2024/03/25 02:40:11;;;;;;;20.48;3.33;;;;;;;;;;4962194;28;20047;-66
2024/03/25 02:42:39;;;;;;;19.52;3.20;;;;;;;;;;4946399;28;20150;-65
2024/03/25 02:45:06;;;;;;;22.77;3.38;;;;;;;;;;4963305;28;20138;-65
2024/03/25 02:47:32;;;;;;;18.00;2.53;;;;;;;;;;4963366;28;20405;-66
2024/03/25 02:49:58;;;;;;;21.45;3.30;;;;;;;;;;4945998;28;20477;-65
2024/03/25 02:52:24;;;;;;;20.50;4.00;;;;;;;;;;4961877;28;20043;-65
2024/03/25 02:54:51;;;;;;;19.50;2.92;;;;;;;;;;4944351;28;20104;-65
2024/03/25 02:57:17;;;;;;;20.98;3.42;;;;;;;;;;4943587;28;20042;-65
2024/03/25 02:59:43;;;;;;;19.05;4.88;;;;;;;;;;4961556;28;20074;-65
2024/03/25 03:02:09;;;;;;;17.67;3.30;;;;;;;;;;4962641;28;20046;-65
2024/03/25 03:04:36;;;;;;;14.35;3.28;;;;;;;;;;4944117;28;20050;-65
2024/03/25 03:07:02;;;;;;;17.80;2.60;;;;;;;;;;4946598;28;20082;-65
2024/03/25 03:09:28;;;;;;;15.13;3.15;;;;;;;;;;4945354;28;20055;-65
2024/03/25 03:11:54;;;;;;;24.27;2.72;;;;;;;;;;4959076;28;20478;-65
2024/03/25 03:14:20;;;;;;;14.27;2.55;;;;;;;;;;4944555;28;20154;-65
2024/03/25 03:16:47;;;;;;;13.57;3.42;;;;;;;;;;4946160;28;20053;-65
2024/03/25 03:19:13;;;;;;;11.88;2.35;;;;;;;;;;4962821;28;20503;-65
2024/03/25 03:21:39;;;;;;;14.25;2.83;;;;;;;;;;4940185;28;20047;-65
2024/03/25 03:24:05;;;;;;;22.70;2.63;;;;;;;;;;4958927;28;20042;-65
2024/03/25 03:26:32;;;;;;;18.50;4.15;;;;;;;;;;4947149;28;20117;-65
2024/03/25 03:28:58;;;;;;;15.40;3.03;;;;;;;;;;4961308;28;20093;-65
2024/03/25 03:31:24;;;;;;;13.90;3.28;;;;;;;;;;4962593;28;20038;-65
2024/03/25 03:33:51;;;;;;;20.17;3.53;;;;;;;;;;4965690;28;20051;-65
2024/03/25 03:36:18;;;;;;;15.90;3.10;;;;;;;;;;4945432;28;20452;-65
2024/03/25 03:38:44;;;;;;;19.90;4.85;;;;;;;;;;4945657;28;20090;-65
2024/03/25 03:41:10;;;;;;;18.83;2.88;;;;;;;;;;4944525;28;20418;-65
2024/03/25 03:43:37;;;;;;;19.30;2.88;;;;;;;;;;4963307;28;20141;-65
2024/03/25 03:46:03;;;;;;;20.20;3.17;;;;;;;;;;4945919;28;20088;-65
2024/03/25 03:48:30;;;;;;;17.30;3.40;;;;;;;;;;4946066;28;20391;-65
2024/03/25 03:50:56;;;;;;;12.70;2.85;;;;;;;;;;4946872;28;20043;-65
2024/03/25 03:53:23;;;;;;;18.02;3.22;;;;;;;;;;4935233;28;20051;-65
2024/03/25 03:55:54;;;;;;;24.95;5.30;;;;;;;;;;4962720;28;20071;-65
2024/03/25 03:58:20;;;;;;;19.85;3.72;;;;;;;;;;4960535;28;20102;-65
2024/03/25 04:00:46;;;;;;;24.92;3.38;;;;;;;;;;4963905;28;20439;-66
2024/03/25 04:03:12;;;;;;;32.45;5.45;;;;;;;;;;4946870;28;20038;-65
2024/03/25 04:05:38;;;;;;;18.20;3.58;;;;;;;;;;4944031;28;20177;-65
2024/03/25 04:08:05;;;;;;;24.92;3.40;;;;;;;;;;4963428;28;20101;-66
2024/03/25 04:10:31;;;;;;;15.77;2.92;;;;;;;;;;4963586;28;20189;-65
2024/03/25 04:12:57;;;;;;;18.05;3.50;;;;;;;;;;4944122;28;20105;-65
2024/03/25 04:15:24;;;;;;;24.15;3.75;;;;;;;;;;4963674;28;20038;-65
2024/03/25 04:17:50;;;;;;;19.70;3.60;;;;;;;;;;4945799;28;20094;-65
2024/03/25 04:20:16;;;;;;;18.52;2.90;;;;;;;;;;4963743;28;20049;-66
2024/03/25 04:22:43;;;;;;;19.58;2.55;;;;;;;;;;4958098;28;20402;-66
2024/03/25 04:25:11;;;;;;;17.70;2.38;;;;;;;;;;4945061;28;20055;-65
2024/03/25 04:27:40;;;;;;;18.15;2.92;;;;;;;;;;4946446;28;20070;-65
2024/03/25 04:30:08;;;;;;;17.90;3.58;;;;;;;;;;4961999;28;20055;-65
2024/03/25 04:32:34;;;;;;;16.45;2.75;;;;;;;;;;4959688;28;20051;-65
2024/03/25 04:35:01;;;;;;;16.65;4.13;;;;;;;;;;4960799;28;20042;-65
2024/03/25 04:37:28;;;;;;;14.57;2.75;;;;;;;;;;4958581;28;20098;-65
2024/03/25 04:39:55;;;;;;;13.98;2.65;;;;;;;;;;4955353;28;20144;-65
2024/03/25 04:42:21;;;;;;;13.65;2.45;;;;;;;;;;4945032;28;20062;-65
2024/03/25 04:44:48;;;;;;;19.35;3.00;;;;;;;;;;4946037;28;20128;-65
2024/03/25 04:47:15;;;;;;;12.75;2.63;;;;;;;;;;4961010;28;20061;-65
2024/03/25 04:49:42;;;;;;;22.08;3.10;;;;;;;;;;4962174;28;20039;-65
2024/03/25 04:52:08;;;;;;;15.98;3.33;;;;;;;;;;4962662;28;20132;-65
2024/03/25 04:54:34;;;;;;;17.58;3.42;;;;;;;;;;4945418;28;20047;-65
2024/03/25 04:57:00;;;;;;;16.80;2.70;;;;;;;;;;4963974;28;20047;-65
2024/03/25 04:59:26;;;;;;;22.65;3.08;;;;;;;;;;4963940;28;20038;-65
2024/03/25 05:01:53;;;;;;;14.98;2.60;;;;;;;;;;4962540;28;20134;-65
2024/03/25 05:04:20;;;;;;;15.70;2.55;;;;;;;;;;4965439;28;20064;-66
2024/03/25 05:06:46;;;;;;;14.13;2.50;;;;;;;;;;4944211;28;20055;-65
2024/03/25 05:09:12;;;;;;;13.90;3.08;;;;;;;;;;4959039;28;20039;-65
2024/03/25 05:11:38;;;;;;;10.45;1.67;;;;;;;;;;4952938;28;20144;-65
2024/03/25 05:14:05;;;;;;;15.35;2.22;;;;;;;;;;4952584;28;20062;-65
2024/03/25 05:16:31;;;;;;;12.63;1.90;;;;;;;;;;4952094;28;21287;-65
2024/03/25 05:18:57;;;;;;;10.63;1.80;;;;;;;;;;4960344;28;20499;-65
2024/03/25 05:21:23;;;;;;;9.65;1.73;;;;;;;;;;4946113;28;20050;-66
2024/03/25 05:23:49;;;;;;;12.13;1.80;;;;;;;;;;4945034;28;20091;-65
2024/03/25 05:26:15;;;;;;;13.90;1.70;;;;;;;;;;4943963;28;20069;-66
2024/03/25 05:28:42;;;;;;;14.18;2.75;;;;;;;;;;4945767;28;20117;-65
2024/03/25 05:31:09;;;;;;;9.65;1.52;;;;;;;;;;4964382;28;20595;-65
2024/03/25 05:33:35;;;;;;;8.85;1.98;;;;;;;;;;4965030;28;20054;-66
2024/03/25 05:36:02;;;;;;;7.50;1.55;;;;;;;;;;4948275;28;20489;-65
2024/03/25 05:38:28;;;;;;;11.00;2.15;;;;;;;;;;4949745;28;20058;-66
2024/03/25 05:40:55;;;;;;;10.50;1.35;;;;;;;;;;4950120;28;20054;-66
2024/03/25 05:43:21;;;;;;;12.32;2.70;;;;;;;;;;4947280;28;20078;-66
2024/03/25 05:45:53;;;;;;;10.70;2.10;;;;;;;;;;4965914;28;20402;-66
2024/03/25 05:48:19;;;;;;;11.75;2.00;;;;;;;;;;4964024;28;20105;-66
2024/03/25 05:50:45;;;;;;;17.05;1.90;;;;;;;;;;4961339;28;20047;-65
2024/03/25 05:53:12;;;;;;;15.02;2.20;;;;;;;;;;4948179;28;20664;-66
2024/03/25 05:55:38;;;;;;;13.45;2.00;;;;;;;;;;4948190;28;20601;-66
2024/03/25 05:58:04;;;;;;;8.32;2.20;;;;;;;;;;4959986;28;20042;-66
2024/03/25 06:00:31;;;;;;;13.23;2.42;;;;;;;;;;4960351;28;20038;-66
2024/03/25 06:02:57;;;;;;;18.17;2.47;;;;;;;;;;4964311;28;20047;-65
2024/03/25 06:05:23;;;;;;;7.55;1.67;;;;;;;;;;4960910;28;20042;-65
2024/03/25 06:07:50;;;;;;;9.45;2.00;;;;;;;;;;4963055;28;20142;-65
2024/03/25 06:10:17;;;;;;;5.60;1.67;;;;;;;;;;4966325;28;20061;-65
2024/03/25 06:12:43;;;;;;;9.07;1.55;;;;;;;;;;4946816;28;20510;-65
2024/03/25 06:15:09;;;;;;;14.48;2.08;;;;;;;;;;4948610;28;20170;-65
2024/03/25 06:17:35;;;;;;;10.77;2.00;;;;;;;;;;4963133;28;20695;-65
2024/03/25 06:20:03;;;;;;;10.60;1.60;;;;;;;;;;4961547;28;20058;-65
2024/03/25 06:22:29;;;;;;;14.35;2.75;;;;;;;;;;4959638;28;20039;-65
2024/03/25 06:24:56;;;;;;;8.70;1.92;;;;;;;;;;4962239;28;20525;-65
2024/03/25 06:27:22;;;;;;;13.35;2.00;;;;;;;;;;4962273;28;20039;-65
2024/03/25 06:29:48;;;;;;;14.73;2.70;;;;;;;;;;4947343;28;20082;-65
2024/03/25 06:35:01;;;;;;;13.65;2.22;;;;;;;;;;4960729;28;20057;-65
2024/03/25 06:37:27;;;;;;;14.43;2.35;;;;;;;;;;4946595;28;20054;-65
2024/03/25 06:39:53;;;;;;;11.18;1.92;;;;;;;;;;4960171;28;20098;-65
2024/03/25 06:42:20;;;;;;;11.30;2.05;;;;;;;;;;4946773;28;20064;-65
2024/03/25 06:44:49;;;;;;;13.27;1.80;;;;;;;;;;4960799;28;20457;-65
2024/03/25 06:47:15;;;;;;;14.40;2.75;;;;;;;;;;4945109;28;20101;-65
2024/03/25 06:49:42;;;;;;;11.65;2.42;;;;;;;;;;4945065;28;20039;-65
2024/03/25 06:52:09;;;;;;;12.60;1.80;;;;;;;;;;4961697;28;20053;-65
2024/03/25 06:54:35;;;;;;;9.02;2.00;;;;;;;;;;4946842;28;20468;-65
2024/03/25 06:57:02;;;;;;;9.45;2.33;;;;;;;;;;4946475;28;20529;-65
2024/03/25 06:59:32;;;;;;;19.35;2.75;;;;;;;;;;4949057;28;20079;-66
2024/03/25 07:01:58;;;;;;;16.45;3.35;;;;;;;;;;4946855;28;20453;-65
2024/03/25 07:04:24;;;;;;;14.70;2.55;;;;;;;;;;4951015;28;20045;-66
2024/03/25 07:06:51;;;;;;;15.90;2.35;;;;;;;;;;4952597;28;20042;-65
2024/03/25 07:09:18;;;;;;;13.40;2.55;;;;;;;;;;4946824;28;20722;-64
2024/03/25 07:11:46;;;;;;;18.50;3.00;;;;;;;;;;4964164;28;20045;-65
2024/03/25 07:14:13;;;;;;;17.15;2.30;;;;;;;;;;4953665;28;20039;-65
2024/03/25 07:16:39;;;;;;;12.25;1.90;;;;;;;;;;4955345;28;20090;-64
2024/03/25 07:19:05;;;;;;;13.50;1.95;;;;;;;;;;4945232;28;20129;-64
2024/03/25 07:21:32;;;;;;;10.98;2.05;;;;;;;;;;4947174;28;20438;-65
2024/03/25 07:23:58;;;;;;;16.83;2.83;;;;;;;;;;4964626;28;20053;-66
2024/03/25 07:26:24;;;;;;;15.45;2.22;;;;;;;;;;4932410;28;20051;-66
2024/03/25 07:28:50;;;;;;;12.07;2.10;;;;;;;;;;4963863;28;20101;-66
2024/03/25 07:31:17;;;;;;;15.23;2.13;;;;;;;;;;4949217;28;20039;-66
2024/03/25 07:33:43;;;;;;;13.10;3.00;;;;;;;;;;4963595;28;20043;-67
2024/03/25 07:36:11;;;;;;;13.23;2.22;;;;;;;;;;4947907;28;20051;-66
2024/03/25 07:38:37;;;;;;;15.98;3.00;;;;;;;;;;4961171;28;20058;-66
2024/03/25 07:41:05;;;;;;;14.40;4.00;;;;;;;;;;4950398;28;20073;-66
2024/03/25 07:43:31;;;;;;;15.30;2.55;;;;;;;;;;4944570;28;20047;-65
2024/03/25 07:45:57;;;;;;;19.23;4.28;;;;;;;;;;4962096;28;20063;-66
2024/03/25 07:48:23;;;;;;;15.85;2.25;;;;;;;;;;4966373;28;20062;-65
2024/03/25 07:50:49;;;;;;;9.80;2.33;;;;;;;;;;4962347;28;20398;-66
2024/03/25 07:53:15;;;;;;;14.32;2.10;;;;;;;;;;4956072;28;20122;-73
2024/03/25 07:55:42;;;;;;;15.05;3.03;;;;;;;;;;4947764;28;20146;-78
2024/03/25 07:58:08;;;;;;;12.40;1.88;;;;;;;;;;4946336;28;20113;-82
2024/03/25 08:00:34;;;;;;;10.85;3.78;;;;;;;;;;4946521;28;20141;-75
2024/03/25 08:03:00;;;;;;;13.40;2.67;;;;;;;;;;4961871;28;20347;-77
2024/03/25 08:05:27;;;;;;;14.65;2.17;;;;;;;;;;4964791;28;20059;-67
2024/03/25 08:07:53;;;;;;;19.58;2.95;;;;;;;;;;4946541;28;20050;-68
2024/03/25 08:10:19;;;;;;;9.50;1.88;;;;;;;;;;4963709;28;20438;-67
2024/03/25 08:12:46;;;;;;;9.10;2.20;;;;;;;;;;4959031;28;20129;-67
2024/03/25 08:15:13;;;;;;;16.83;2.47;;;;;;;;;;4947043;28;20073;-64
2024/03/25 08:17:39;;;;;;;13.88;2.13;;;;;;;;;;4962686;28;20051;-64
2024/03/25 08:20:06;;;;;;;13.40;1.95;;;;;;;;;;4948344;28;20493;-64
2024/03/25 08:22:32;;;;;;;16.88;3.30;;;;;;;;;;4961283;28;20055;-65
2024/03/25 08:24:58;;;;;;;19.55;5.03;;;;;;;;;;4940524;28;20122;-64
2024/03/25 08:27:24;;;;;;;18.83;2.97;;;;;;;;;;4943678;28;20055;-64
2024/03/25 08:29:53;;;;;;;20.48;2.58;;;;;;;;;;4962936;28;20097;-64
2024/03/25 08:32:19;;;;;;;21.33;3.47;;;;;;;;;;4959612;28;20043;-64
2024/03/25 08:34:46;;;;;;;16.02;2.67;;;;;;;;;;4948462;28;20082;-64
2024/03/25 08:37:12;;;;;;;16.33;2.90;;;;;;;;;;4944049;28;20125;-64
2024/03/25 08:39:38;;;;;;;16.83;3.22;;;;;;;;;;4963012;28;20515;-65
2024/03/25 08:42:05;;;;;;;19.70;3.55;;;;;;;;;;4945823;28;20392;-64
2024/03/25 08:44:31;;;;;;;23.38;2.92;;;;;;;;;;4948143;28;20141;-65
2024/03/25 08:46:57;;;;;;;19.13;3.20;;;;;;;;;;4942916;28;20058;-65
2024/03/25 08:49:23;;;;;;;18.30;3.42;;;;;;;;;;4945994;28;20050;-65
2024/03/25 08:51:49;;;;;;;14.57;2.25;;;;;;;;;;4962179;28;20158;-65
2024/03/25 08:54:15;;;;;;;14.43;2.05;;;;;;;;;;4945933;28;20189;-64
2024/03/25 08:56:41;;;;;;;11.40;2.78;;;;;;;;;;4945090;28;20047;-65
2024/03/25 08:59:09;;;;;;;9.32;1.92;;;;;;;;;;4944959;28;20182;-74
2024/03/25 09:01:36;;;;;;;13.77;2.10;;;;;;;;;;4954831;28;20065;-63
2024/03/25 09:04:03;;;;;;;9.30;2.28;;;;;;;;;;4962893;28;20150;-64
2024/03/25 09:06:30;;;;;;;10.32;2.67;;;;;;;;;;4945021;28;20095;-63
2024/03/25 09:11:41;;;;;;;14.77;2.28;;;;;;;;;;4942575;28;20219;-66
2024/03/25 09:14:07;;;;;;;18.67;4.20;;;;;;;;;;4946562;28;20500;-66
2024/03/25 09:16:33;;;;;;;20.35;4.13;;;;;;;;;;4943705;28;20050;-69
2024/03/25 09:19:00;;;;;;;17.00;2.60;;;;;;;;;;4960881;28;20123;-66
2024/03/25 09:21:27;;;;;;;14.20;2.50;;;;;;;;;;4945621;28;20526;-67
2024/03/25 09:23:53;;;;;;;13.88;2.80;;;;;;;;;;4948549;28;20055;-68
2024/03/25 09:26:19;;;;;;;23.55;3.20;;;;;;;;;;4945277;28;20174;-67
2024/03/25 09:28:45;;;;;;;15.52;2.83;;;;;;;;;;4945935;28;20051;-68
2024/03/25 09:31:11;;;;;;;19.85;3.28;;;;;;;;;;4946839;28;20114;-68
2024/03/25 09:33:38;;;;;;;16.45;3.25;;;;;;;;;;4964464;28;20122;-68
2024/03/25 09:36:04;;;;;;;14.18;2.58;;;;;;;;;;4950198;28;20118;-68
2024/03/25 09:38:30;;;;;;;17.95;2.67;;;;;;;;;;4943498;28;20066;-68
2024/03/25 09:40:57;;;;;;;16.88;3.95;;;;;;;;;;4945728;28;20043;-68
2024/03/25 09:43:28;;;;;;;21.17;2.88;;;;;;;;;;4930270;29;20059;-67
2024/03/25 09:45:55;;;;;;;13.07;2.25;;;;;;;;;;4962107;28;20102;-68
2024/03/25 09:48:22;;;;;;;20.05;2.72;;;;;;;;;;4943602;28;20039;-68
2024/03/25 09:50:49;;;;;;;14.30;2.47;;;;;;;;;;4944240;28;20158;-67
2024/03/25 09:53:16;;;;;;;16.42;2.97;;;;;;;;;;4942553;28;20266;-66
2024/03/25 09:55:42;;;;;;;11.65;2.90;;;;;;;;;;4942518;28;20070;-66
2024/03/25 09:58:09;;;;;;;17.70;2.85;;;;;;;;;;4924470;28;20502;-65
2024/03/25 10:00:35;;;;;;;16.60;2.40;;;;;;;;;;4944244;28;20063;-65
2024/03/25 10:03:02;;;;;;;19.15;2.95;;;;;;;;;;4938589;28;20603;-66
2024/03/25 10:05:28;;;;;;;16.08;2.55;;;;;;;;;;4951238;28;20058;-66
2024/03/25 10:07:54;;;;;;;19.17;2.70;;;;;;;;;;4965131;28;20470;-67
2024/03/25 10:10:20;;;;;;;18.02;3.42;;;;;;;;;;4950392;28;20157;-66
2024/03/25 10:12:47;;;;;;;15.65;2.30;;;;;;;;;;4963335;28;20439;-66
2024/03/25 10:15:19;;;;;;;13.25;2.80;;;;;;;;;;4964632;28;20038;-67
2024/03/25 10:17:45;;;;;;;15.77;2.50;;;;;;;;;;4964910;28;20043;-67
2024/03/25 10:20:15;;;;;;;14.85;3.20;;;;;;;;;;4965049;28;20047;-66
2024/03/25 10:22:42;;;;;;;10.32;2.08;;;;;;;;;;4966776;28;20042;-66
2024/03/25 10:25:19;;;;;;;17.63;2.70;;;;;;;;;;4965077;28;20054;-66
2024/03/25 10:27:53;;;;;;;14.50;2.80;;;;;;;;;;4964780;28;20129;-66
2024/03/25 10:30:19;;;;;;;12.90;2.50;;;;;;;;;;4964054;28;20177;-66
2024/03/25 10:32:46;;;;;;;16.83;2.30;;;;;;;;;;4946444;28;20118;-66
2024/03/25 10:35:12;;;;;;;17.92;3.05;;;;;;;;;;4966668;28;20062;-66
2024/03/25 10:37:39;;;;;;;14.02;3.30;;;;;;;;;;4945995;28;20051;-66
2024/03/25 10:40:07;;;;;;;11.40;2.75;;;;;;;;;;4959269;28;20475;-66
2024/03/25 10:42:34;;;;;;;13.50;2.60;;;;;;;;;;4948929;28;20047;-66
2024/03/25 10:45:01;;;;;;;12.77;2.38;;;;;;;;;;4947156;28;20152;-66
2024/03/25 10:47:30;;;;;;;12.85;2.72;;;;;;;;;;4947225;28;20070;-66
2024/03/25 10:49:57;;;;;;;12.48;2.60;;;;;;;;;;4946383;28;20446;-67
2024/03/25 10:52:25;;;;;;;17.98;3.03;;;;;;;;;;4945603;28;20061;-67
2024/03/25 10:54:51;;;;;;;15.70;2.60;;;;;;;;;;4957157;28;20406;-67
2024/03/25 10:57:18;;;;;;;14.82;2.67;;;;;;;;;;4947537;28;20053;-67
2024/03/25 10:59:45;;;;;;;16.30;3.00;;;;;;;;;;4953298;28;20065;-67
2024/03/25 11:02:12;;;;;;;13.60;2.85;;;;;;;;;;4946410;28;20510;-67
2024/03/25 11:04:38;;;;;;;15.00;3.33;;;;;;;;;;4959475;28;20039;-67
2024/03/25 11:07:08;;;;;;;12.68;2.50;;;;;;;;;;4945196;28;20145;-66
2024/03/25 11:09:35;;;;;;;13.70;2.50;;;;;;;;;;4954996;28;20411;-66
2024/03/25 11:12:01;;;;;;;15.23;2.55;;;;;;;;;;4960079;28;20042;-67
2024/03/25 11:14:28;;;;;;;14.48;2.42;;;;;;;;;;4944554;28;20047;-67
2024/03/25 11:16:54;;;;;;;17.38;2.60;;;;;;;;;;4955125;28;20062;-66
2024/03/25 11:19:21;;;;;;;13.63;2.30;;;;;;;;;;4944194;28;20133;-67
2024/03/25 11:21:47;;;;;;;12.00;2.00;;;;;;;;;;4959629;28;20047;-67
2024/03/25 11:24:13;;;;;;;16.08;2.70;;;;;;;;;;4949768;28;20053;-67
2024/03/25 11:26:41;;;;;;;13.93;2.45;;;;;;;;;;4929443;28;20046;-67
2024/03/25 11:29:08;;;;;;;14.75;2.85;;;;;;;;;;4947572;28;20046;-68
2024/03/25 11:31:35;;;;;;;16.75;3.63;;;;;;;;;;4964682;28;20379;-67
2024/03/25 11:34:08;;;;;;;12.52;2.22;;;;;;;;;;4964213;28;20054;-67
2024/03/25 11:36:35;;;;;;;14.43;3.10;;;;;;;;;;4963850;28;20125;-66
2024/03/25 11:39:04;;;;;;;15.23;2.72;;;;;;;;;;4947071;28;20058;-67
2024/03/25 11:41:33;;;;;;;13.50;2.90;;;;;;;;;;4948875;28;20057;-67
2024/03/25 11:44:00;;;;;;;13.85;2.88;;;;;;;;;;4967278;28;20035;-66
2024/03/25 11:46:26;;;;;;;17.38;3.42;;;;;;;;;;4951330;28;20043;-66
2024/03/25 11:48:53;;;;;;;12.82;2.80;;;;;;;;;;4966134;28;20039;-66
2024/03/25 11:51:20;;;;;;;19.05;3.35;;;;;;;;;;4951053;28;20062;-67
2024/03/25 11:53:46;;;;;;;11.05;2.35;;;;;;;;;;4962129;28;20455;-67
2024/03/25 11:56:13;;;;;;;17.75;2.90;;;;;;;;;;4958905;28;20040;-66
2024/03/25 11:58:39;;;;;;;10.57;2.20;;;;;;;;;;4947431;28;20058;-66
2024/03/25 12:01:05;;;;;;;15.50;2.85;;;;;;;;;;4961432;28;20132;-67
2024/03/25 12:03:34;;;;;;;18.98;3.88;;;;;;;;;;4948471;28;20053;-68
2024/03/25 12:06:01;;;;;;;13.48;2.47;;;;;;;;;;4963831;28;20059;-67
2024/03/25 12:08:27;;;;;;;14.05;3.30;;;;;;;;;;4962637;28;20490;-67
2024/03/25 12:13:41;;;;;;;27.42;3.25;;;;;;;;;;4956896;28;20113;-67
2024/03/25 12:16:07;;;;;;;15.32;3.10;;;;;;;;;;4943895;28;20093;-67
2024/03/25 12:18:35;;;;;;;15.63;2.85;;;;;;;;;;4964940;28;20043;-66
2024/03/25 12:21:02;;;;;;;14.63;3.13;;;;;;;;;;4942394;28;20098;-67
2024/03/25 12:23:30;;;;;;;19.73;2.70;;;;;;;;;;4946810;28;20055;-66
2024/03/25 12:25:56;;;;;;;15.90;3.08;;;;;;;;;;4945356;28;20404;-66
2024/03/25 12:28:23;;;;;;;11.00;2.47;;;;;;;;;;4961132;28;20035;-67
2024/03/25 12:30:50;;;;;;;14.93;2.90;;;;;;;;;;4944091;28;20073;-67
2024/03/25 12:33:17;;;;;;;14.63;2.70;;;;;;;;;;4944528;28;20032;-67
2024/03/25 12:35:45;;;;;;;12.45;2.50;;;;;;;;;;4942731;28;20412;-67
2024/03/25 12:38:22;;;;;;;14.00;3.47;;;;;;;;;;4948342;28;20046;-67
2024/03/25 12:40:48;;;;;;;13.35;2.30;;;;;;;;;;4963349;28;20054;-67
2024/03/25 12:43:15;;;;;;;15.65;2.78;;;;;;;;;;4961542;28;20082;-67
2024/03/25 12:45:42;;;;;;;13.02;2.97;;;;;;;;;;4959446;28;20447;-66
2024/03/25 12:48:09;;;;;;;16.00;2.75;;;;;;;;;;4962744;28;20038;-66
2024/03/25 12:50:35;;;;;;;18.70;3.30;;;;;;;;;;4962182;28;20126;-66
2024/03/25 12:53:02;;;;;;;10.02;2.53;;;;;;;;;;4943677;28;20062;-65
2024/03/25 12:55:29;;;;;;;11.18;2.30;;;;;;;;;;4960153;28;20065;-66
2024/03/25 12:57:55;;;;;;;13.98;2.65;;;;;;;;;;4944992;28;20059;-66
2024/03/25 13:00:22;;;;;;;19.60;3.65;;;;;;;;;;4945752;28;20454;-66
2024/03/25 13:02:48;;;;;;;12.85;3.50;;;;;;;;;;4950298;28;20042;-66
2024/03/25 13:05:15;;;;;;;12.00;1.88;;;;;;;;;;4959709;28;20065;-66
2024/03/25 13:07:41;;;;;;;17.52;2.53;;;;;;;;;;4945554;28;20467;-67
2024/03/25 13:10:07;;;;;;;16.55;2.70;;;;;;;;;;4957273;28;20038;-66
2024/03/25 13:12:33;;;;;;;13.90;2.65;;;;;;;;;;4945217;28;20086;-66
2024/03/25 13:15:00;;;;;;;19.20;2.47;;;;;;;;;;4958381;28;20106;-66
2024/03/25 13:17:26;;;;;;;15.65;2.63;;;;;;;;;;4943531;28;20071;-65
2024/03/25 13:19:52;;;;;;;15.73;2.85;;;;;;;;;;4960266;28;20042;-65
2024/03/25 13:22:18;;;;;;;14.98;2.78;;;;;;;;;;4962002;28;20054;-65
2024/03/25 13:24:45;;;;;;;18.77;3.05;;;;;;;;;;4944111;28;20047;-65
2024/03/25 13:27:11;;;;;;;11.63;2.40;;;;;;;;;;4945939;28;20043;-66
2024/03/25 13:29:37;;;;;;;13.48;2.53;;;;;;;;;;4946477;28;20395;-67
2024/03/25 13:32:03;;;;;;;10.60;2.10;;;;;;;;;;4961011;28;20054;-67
2024/03/25 13:34:29;;;;;;;10.93;2.38;;;;;;;;;;4943588;28;20121;-67
2024/03/25 13:36:56;;;;;;;12.07;2.08;;;;;;;;;;4944879;28;20173;-68
2024/03/25 13:39:22;;;;;;;16.02;2.85;;;;;;;;;;4946989;28;20416;-67
2024/03/25 13:41:49;;;;;;;11.52;2.20;;;;;;;;;;4943903;28;20043;-68
2024/03/25 13:44:15;;;;;;;8.63;2.17;;;;;;;;;;4965246;28;20058;-68
2024/03/25 13:46:41;;;;;;;16.30;3.80;;;;;;;;;;4943099;28;20058;-68
2024/03/25 13:49:09;;;;;;;12.35;2.45;;;;;;;;;;4955828;28;20085;-68
2024/03/25 13:51:35;;;;;;;10.75;2.40;;;;;;;;;;4946794;28;20070;-68
2024/03/25 13:54:02;;;;;;;10.70;2.42;;;;;;;;;;4966851;28;20051;-67
2024/03/25 13:56:28;;;;;;;14.80;2.92;;;;;;;;;;4963970;28;20094;-67
2024/03/25 13:58:55;;;;;;;13.05;3.97;;;;;;;;;;4963941;28;20054;-67
2024/03/25 14:01:21;;;;;;;14.57;2.33;;;;;;;;;;4964752;28;20038;-67
2024/03/25 14:03:47;;;;;;;11.48;2.38;;;;;;;;;;4966910;28;20184;-67
2024/03/25 14:06:13;;;;;;;13.75;3.13;;;;;;;;;;4966015;28;20062;-68
2024/03/25 14:08:41;;;;;;;13.15;2.45;;;;;;;;;;4963005;28;20053;-68
2024/03/25 14:11:08;;;;;;;14.02;2.63;;;;;;;;;;4966872;28;20058;-67
2024/03/25 14:13:35;;;;;;;15.40;2.65;;;;;;;;;;4950600;28;20066;-68
2024/03/25 14:16:01;;;;;;;13.40;2.83;;;;;;;;;;4964101;28;20046;-68
2024/03/25 14:18:27;;;;;;;16.10;2.88;;;;;;;;;;4948720;28;20148;-68
2024/03/25 14:20:54;;;;;;;10.00;2.00;;;;;;;;;;4946095;28;20426;-67
2024/03/25 14:23:20;;;;;;;11.57;2.30;;;;;;;;;;4965967;28;20114;-67
2024/03/25 14:25:47;;;;;;;11.43;2.35;;;;;;;;;;4966198;28;20049;-67
2024/03/25 14:28:13;;;;;;;11.05;2.03;;;;;;;;;;4966831;28;20406;-67
2024/03/25 14:30:39;;;;;;;7.30;1.67;;;;;;;;;;4948753;28;20118;-68
2024/03/25 14:33:06;;;;;;;9.02;1.80;;;;;;;;;;4966546;28;20440;-68
2024/03/25 14:35:32;;;;;;;14.93;2.45;;;;;;;;;;4949621;28;20074;-68